createdAt,value
2023-05-14T00:02:03.258Z,12.76
2023-05-14T00:04:31.187Z,12.71
2023-05-14T00:06:58.971Z,12.43
2023-05-14T00:09:26.450Z,12.68
2023-05-14T00:11:54.176Z,12.68
2023-05-14T00:14:22.059Z,12.67
2023-05-14T00:16:50.311Z,12.36
2023-05-14T00:19:18.303Z,12.49
2023-05-14T00:21:47.377Z,12.58
2023-05-14T00:24:15.056Z,12.57
2023-05-14T00:26:42.741Z,12.49
2023-05-14T00:29:10.710Z,12.52
2023-05-14T00:31:38.291Z,12.25
2023-05-14T00:34:06.067Z,12.52
2023-05-14T00:36:33.563Z,12.52
2023-05-14T00:39:01.119Z,12.46
2023-05-14T00:41:28.877Z,12.49
2023-05-14T00:43:56.345Z,12.16
2023-05-14T00:46:23.912Z,12.19
2023-05-14T00:48:51.958Z,12.38
2023-05-14T00:51:20.123Z,12.38
2023-05-14T00:53:48.246Z,12.38
2023-05-14T00:56:16.567Z,12.39
2023-05-14T00:58:44.382Z,12.08
2023-05-14T01:01:15.186Z,12.35
2023-05-14T01:03:44.240Z,12.21
2023-05-14T01:06:11.705Z,12.32
2023-05-14T01:09:01.486Z,12.29
2023-05-14T01:11:33.989Z,12.26
2023-05-14T01:14:31.155Z,12.30
2023-05-14T01:17:02.462Z,12.28
2023-05-14T01:19:39.384Z,12.33
2023-05-14T01:22:07.357Z,12.25
2023-05-14T01:24:34.924Z,12.27
2023-05-14T01:27:26.175Z,11.99
2023-05-14T01:30:19.596Z,12.22
2023-05-14T01:32:51.146Z,12.20
2023-05-14T01:35:22.535Z,12.12
2023-05-14T01:37:51.188Z,12.15
2023-05-14T01:40:19.435Z,12.14
2023-05-14T01:42:47.839Z,12.12
2023-05-14T01:45:16.330Z,12.12
2023-05-14T01:47:44.047Z,12.08
2023-05-14T01:50:11.578Z,12.09
2023-05-14T01:52:39.647Z,12.13
2023-05-14T01:55:08.024Z,12.09
2023-05-14T01:57:35.990Z,12.09
2023-05-14T02:00:04.402Z,11.75
2023-05-14T02:02:41.272Z,12.06
2023-05-14T02:05:10.791Z,12.05
2023-05-14T02:07:38.461Z,12.06
2023-05-14T02:10:06.652Z,12.09
2023-05-14T02:12:34.615Z,12.10
2023-05-14T02:15:03.994Z,11.83
2023-05-14T02:17:31.544Z,11.86
2023-05-14T02:19:59.023Z,12.10
2023-05-14T02:22:26.835Z,12.09
2023-05-14T02:24:54.356Z,12.06
2023-05-14T02:27:21.954Z,12.03
2023-05-14T02:29:49.775Z,12.04
2023-05-14T02:32:17.281Z,12.03
2023-05-14T02:34:44.817Z,11.89
2023-05-14T02:37:12.622Z,12.06
2023-05-14T02:39:40.189Z,12.03
2023-05-14T02:42:07.770Z,12.04
2023-05-14T02:44:35.690Z,12.04
2023-05-14T02:47:03.144Z,12.05
2023-05-14T02:49:30.654Z,12.05
2023-05-14T02:52:00.821Z,12.03
2023-05-14T02:54:28.322Z,12.05
2023-05-14T02:56:55.916Z,12.02
2023-05-14T02:59:24.356Z,12.04
2023-05-14T03:01:52.506Z,11.79
2023-05-14T03:04:20.657Z,11.97
2023-05-14T03:06:48.423Z,11.95
2023-05-14T03:09:15.952Z,11.95
2023-05-14T03:11:43.528Z,11.98
2023-05-14T03:14:11.316Z,12.03
2023-05-14T03:16:40.116Z,12.06
2023-05-14T03:19:08.094Z,12.03
2023-05-14T03:21:35.918Z,12.08
2023-05-14T03:24:03.587Z,12.12
2023-05-14T03:26:31.049Z,12.06
2023-05-14T03:28:58.758Z,11.83
2023-05-14T03:31:26.696Z,12.16
2023-05-14T03:33:57.041Z,11.90
2023-05-14T03:36:24.751Z,12.10
2023-05-14T03:38:53.497Z,12.10
2023-05-14T03:41:21.963Z,12.05
2023-05-14T03:43:49.747Z,12.10
2023-05-14T03:46:17.221Z,12.14
2023-05-14T03:48:44.806Z,12.07
2023-05-14T03:51:13.061Z,11.78
2023-05-14T03:53:41.354Z,12.07
2023-05-14T03:56:08.842Z,12.05
2023-05-14T03:58:36.646Z,12.11
2023-05-14T04:01:04.194Z,12.09
2023-05-14T04:03:32.233Z,12.08
2023-05-14T04:05:59.970Z,12.04
2023-05-14T04:08:27.368Z,12.10
2023-05-14T04:10:56.998Z,12.13
2023-05-14T04:13:24.493Z,12.16
2023-05-14T04:15:51.954Z,11.90
2023-05-14T04:18:19.699Z,11.90
2023-05-14T04:20:47.152Z,12.24
2023-05-14T04:23:14.658Z,12.27
2023-05-14T04:25:42.478Z,12.31
2023-05-14T04:28:10.007Z,12.07
2023-05-14T04:30:37.486Z,12.41
2023-05-14T04:33:05.303Z,12.44
2023-05-14T04:35:32.798Z,12.22
2023-05-14T04:38:00.277Z,12.51
2023-05-14T04:40:28.182Z,12.50
2023-05-14T04:42:55.830Z,12.52
2023-05-14T04:45:23.324Z,12.64
2023-05-14T04:47:51.432Z,12.50
2023-05-14T04:50:19.009Z,12.76
2023-05-14T04:52:46.469Z,12.82
2023-05-14T04:55:14.140Z,12.76
2023-05-14T04:57:41.620Z,12.85
2023-05-14T05:00:10.174Z,12.93
2023-05-14T05:02:37.976Z,12.85
2023-05-14T05:05:05.824Z,12.89
2023-05-14T05:07:33.216Z,12.93
2023-05-14T05:10:01.017Z,12.99
2023-05-14T05:12:30.218Z,13.01
2023-05-14T05:14:57.968Z,13.03
2023-05-14T05:17:26.078Z,12.91
2023-05-14T05:19:53.551Z,13.03
2023-05-14T05:22:21.331Z,13.09
2023-05-14T05:24:50.110Z,12.74
2023-05-14T05:27:17.661Z,12.85
2023-05-14T05:29:45.064Z,13.01
2023-05-14T05:32:13.117Z,12.95
2023-05-14T05:34:41.411Z,12.85
2023-05-14T05:37:12.696Z,12.76
2023-05-14T05:39:40.646Z,12.76
2023-05-14T05:42:08.346Z,12.71
2023-05-14T05:44:35.843Z,12.58
2023-05-14T05:47:03.675Z,12.50
2023-05-14T05:49:31.094Z,12.46
2023-05-14T05:51:58.536Z,12.49
2023-05-14T05:54:27.230Z,12.45
2023-05-14T05:56:54.737Z,12.49
2023-05-14T05:59:22.244Z,12.48
2023-05-14T06:01:50.209Z,12.51
2023-05-14T06:04:18.002Z,12.51
2023-05-14T06:06:45.520Z,12.55
2023-05-14T06:09:13.468Z,12.57
2023-05-14T06:11:41.296Z,12.63
2023-05-14T06:14:08.753Z,12.65
2023-05-14T06:16:36.274Z,12.61
2023-05-14T06:19:04.109Z,12.63
2023-05-14T06:21:31.723Z,12.59
2023-05-14T06:23:59.179Z,12.59
2023-05-14T06:26:27.021Z,12.36
2023-05-14T06:28:54.664Z,12.63
2023-05-14T06:31:22.151Z,12.62
2023-05-14T06:33:49.989Z,12.41
2023-05-14T06:36:17.499Z,12.65
2023-05-14T06:38:44.995Z,12.63
2023-05-14T06:41:12.766Z,12.61
2023-05-14T06:43:40.374Z,12.70
2023-05-14T06:46:07.908Z,12.67
2023-05-14T06:48:35.666Z,12.73
2023-05-14T06:51:03.896Z,12.68
2023-05-14T06:53:31.587Z,12.66
2023-05-14T06:55:59.286Z,12.76
2023-05-14T06:58:26.757Z,12.89
2023-05-14T07:00:54.265Z,12.92
2023-05-14T07:03:22.381Z,12.95
2023-05-14T07:05:49.988Z,12.87
2023-05-14T07:08:17.502Z,12.89
2023-05-14T07:10:45.247Z,12.84
2023-05-14T07:13:12.697Z,12.65
2023-05-14T07:15:40.108Z,12.61
2023-05-14T07:18:08.018Z,13.01
2023-05-14T07:20:35.567Z,12.99
2023-05-14T07:23:03.281Z,12.77
2023-05-14T07:25:31.109Z,13.06
2023-05-14T07:27:58.669Z,13.02
2023-05-14T07:30:26.308Z,13.42
2023-05-14T07:32:54.358Z,13.43
2023-05-14T07:35:22.682Z,13.16
2023-05-14T07:37:50.373Z,13.20
2023-05-14T07:40:18.127Z,13.25
2023-05-14T07:42:45.608Z,13.18
2023-05-14T07:45:13.085Z,13.11
2023-05-14T07:47:41.228Z,12.87
2023-05-14T07:50:09.203Z,12.89
2023-05-14T07:52:36.660Z,12.80
2023-05-14T07:55:04.806Z,12.50
2023-05-14T07:57:32.280Z,12.50
2023-05-14T07:59:59.702Z,12.67
2023-05-14T08:02:28.260Z,12.68
2023-05-14T08:04:56.160Z,12.56
2023-05-14T08:07:23.637Z,12.60
2023-05-14T08:09:51.103Z,12.58
2023-05-14T08:12:18.936Z,12.53
2023-05-14T08:14:46.373Z,12.17
2023-05-14T08:17:14.006Z,12.48
2023-05-14T08:19:41.815Z,12.45
2023-05-14T08:22:09.357Z,12.48
2023-05-14T08:24:36.855Z,12.19
2023-05-14T08:27:05.070Z,12.12
2023-05-14T08:29:32.679Z,12.37
2023-05-14T08:32:05.809Z,12.24
2023-05-14T08:34:39.846Z,12.21
2023-05-14T08:37:07.289Z,12.17
2023-05-14T08:39:34.694Z,12.20
2023-05-14T08:42:06.251Z,11.93
2023-05-14T08:44:39.978Z,12.14
2023-05-14T08:47:07.847Z,12.22
2023-05-14T08:49:41.795Z,12.27
2023-05-14T08:52:10.724Z,12.22
2023-05-14T08:54:39.751Z,12.26
2023-05-14T08:57:09.939Z,12.28
2023-05-14T08:59:38.063Z,12.27
2023-05-14T09:02:06.477Z,12.23
2023-05-14T09:04:34.962Z,12.14
2023-05-14T09:07:04.118Z,12.24
2023-05-14T09:09:31.857Z,12.24
2023-05-14T09:11:59.581Z,12.08
2023-05-14T09:14:27.339Z,12.13
2023-05-14T09:16:55.516Z,12.16
2023-05-14T09:19:23.242Z,12.09
2023-05-14T09:21:51.068Z,12.09
2023-05-14T09:24:21.082Z,12.04
2023-05-14T09:26:57.325Z,12.02
2023-05-14T09:29:26.185Z,12.05
2023-05-14T09:31:54.923Z,12.06
2023-05-14T09:34:30.530Z,12.05
2023-05-14T09:37:01.343Z,11.85
2023-05-14T09:39:30.165Z,12.07
2023-05-14T09:41:58.451Z,12.06
2023-05-14T09:44:26.422Z,12.06
2023-05-14T09:46:54.395Z,12.06
2023-05-14T09:49:22.564Z,12.04
2023-05-14T09:51:50.883Z,12.05
2023-05-14T09:54:18.412Z,12.03
2023-05-14T09:56:46.195Z,11.99
2023-05-14T09:59:13.725Z,11.76
2023-05-14T10:01:43.177Z,12.00
2023-05-14T10:04:12.580Z,11.95
2023-05-14T10:06:42.236Z,11.69
2023-05-14T10:09:14.052Z,11.98
2023-05-14T10:11:50.170Z,11.93
2023-05-14T10:14:33.616Z,11.71
2023-05-14T10:17:03.088Z,11.97
2023-05-14T10:19:34.323Z,11.95
2023-05-14T10:22:07.134Z,12.01
2023-05-14T10:24:35.902Z,12.02
2023-05-14T10:27:03.933Z,12.09
2023-05-14T10:29:35.545Z,12.10
2023-05-14T10:32:08.421Z,12.10
2023-05-14T10:34:40.712Z,12.22
2023-05-14T10:37:12.279Z,12.26
2023-05-14T10:39:43.992Z,12.26
2023-05-14T10:42:14.058Z,12.20
2023-05-14T10:44:48.500Z,12.29
2023-05-14T10:47:19.247Z,12.13
2023-05-14T10:49:50.205Z,12.38
2023-05-14T10:52:19.471Z,12.35
2023-05-14T10:55:10.794Z,12.32
2023-05-14T10:57:39.798Z,12.40
2023-05-14T11:00:09.121Z,12.35
2023-05-14T11:02:39.415Z,12.19
2023-05-14T11:05:11.018Z,12.16
2023-05-14T11:07:40.750Z,12.34
2023-05-14T11:10:14.060Z,12.42
2023-05-14T11:12:43.951Z,12.42
2023-05-14T11:15:16.581Z,12.53
2023-05-14T11:17:45.528Z,12.56
2023-05-14T11:20:14.054Z,12.65
2023-05-14T11:22:43.310Z,12.69
2023-05-14T11:25:14.750Z,12.72
2023-05-14T11:27:44.651Z,12.69
2023-05-14T11:30:17.292Z,12.79
2023-05-14T11:32:46.418Z,12.86
2023-05-14T11:35:14.767Z,12.90
2023-05-14T11:37:43.175Z,12.86
2023-05-14T11:40:16.992Z,12.92
2023-05-14T11:42:44.880Z,12.89
2023-05-14T11:45:14.269Z,13.00
2023-05-14T11:47:42.773Z,13.01
2023-05-14T11:50:11.278Z,13.22
2023-05-14T11:52:41.967Z,13.35
2023-05-14T11:55:12.975Z,13.37
2023-05-14T11:57:41.371Z,13.45
2023-05-14T12:00:13.549Z,13.35
2023-05-14T12:02:41.520Z,13.52
2023-05-14T12:05:12.604Z,13.62
2023-05-14T12:07:41.879Z,13.64
2023-05-14T12:10:12.287Z,13.57
2023-05-14T12:12:40.039Z,13.58
2023-05-14T12:15:15.050Z,13.58
2023-05-14T12:17:43.208Z,13.64
2023-05-14T12:20:12.413Z,13.64
2023-05-14T12:22:42.645Z,13.57
2023-05-14T12:25:13.446Z,13.60
2023-05-14T12:27:41.630Z,13.64
2023-05-14T12:32:43.333Z,13.72
2023-05-14T12:35:10.921Z,13.79
2023-05-14T12:37:40.034Z,13.59
2023-05-14T12:40:09.764Z,13.88
2023-05-14T12:42:37.627Z,13.92
2023-05-14T12:45:08.012Z,13.92
2023-05-14T12:47:37.167Z,13.88
2023-05-14T12:50:05.971Z,13.91
2023-05-14T12:52:38.335Z,13.79
2023-05-14T12:55:09.000Z,13.89
2023-05-14T12:57:39.067Z,13.85
2023-05-14T13:00:12.206Z,13.86
2023-05-14T13:02:42.721Z,13.85
2023-05-14T13:05:12.350Z,13.91
2023-05-14T13:07:40.045Z,13.94
2023-05-14T13:10:08.274Z,13.69
2023-05-14T13:12:36.136Z,14.00
2023-05-14T13:15:03.941Z,14.02
2023-05-14T13:17:31.529Z,13.98
2023-05-14T13:19:59.303Z,13.97
2023-05-14T13:22:26.735Z,13.75
2023-05-14T13:24:54.230Z,13.94
2023-05-14T13:27:22.089Z,13.97
2023-05-14T13:29:49.695Z,14.04
2023-05-14T13:32:17.098Z,14.14
2023-05-14T13:34:44.886Z,14.18
2023-05-14T13:37:12.426Z,14.28
2023-05-14T13:39:41.091Z,14.18
2023-05-14T13:42:08.993Z,14.37
2023-05-14T13:44:36.503Z,14.48
2023-05-14T13:47:04.346Z,14.42
2023-05-14T13:49:32.137Z,14.46
2023-05-14T13:51:59.577Z,14.24
2023-05-14T13:54:27.077Z,14.54
2023-05-14T13:56:54.789Z,14.59
2023-05-14T13:59:22.336Z,14.62
2023-05-14T14:01:51.582Z,14.69
2023-05-14T14:04:20.051Z,14.49
2023-05-14T14:06:47.536Z,14.76
2023-05-14T14:09:15.123Z,14.80
2023-05-14T14:11:42.888Z,14.81
2023-05-14T14:14:10.375Z,14.87
2023-05-14T14:16:38.010Z,14.93
2023-05-14T14:19:07.189Z,15.25
2023-05-14T14:21:35.377Z,15.30
2023-05-14T14:24:02.846Z,15.39
2023-05-14T14:26:30.626Z,15.39
2023-05-14T14:28:58.506Z,15.35
2023-05-14T14:31:26.043Z,15.45
2023-05-14T14:33:53.940Z,15.32
2023-05-14T14:36:21.436Z,15.26
2023-05-14T14:38:48.919Z,15.18
2023-05-14T14:41:16.698Z,15.13
2023-05-14T14:43:44.179Z,15.03
2023-05-14T14:46:11.701Z,15.05
2023-05-14T14:48:39.972Z,15.03
2023-05-14T14:51:08.518Z,15.02
2023-05-14T14:53:37.223Z,14.91
2023-05-14T14:56:05.316Z,14.87
2023-05-14T14:58:32.841Z,14.89
2023-05-14T15:01:01.446Z,14.89
2023-05-14T15:03:29.499Z,14.89
2023-05-14T15:05:57.353Z,14.88
2023-05-14T15:08:27.583Z,14.85
2023-05-14T15:10:59.382Z,14.87
2023-05-14T15:13:27.204Z,14.84
2023-05-14T15:15:55.020Z,14.86
2023-05-14T15:18:22.570Z,14.89
2023-05-14T15:20:50.044Z,14.89
2023-05-14T15:23:18.087Z,14.92
2023-05-14T15:25:45.743Z,14.97
2023-05-14T15:28:13.241Z,15.07
2023-05-14T15:30:41.111Z,15.15
2023-05-14T15:33:08.871Z,15.21
2023-05-14T15:35:36.753Z,15.18
2023-05-14T15:38:04.538Z,15.19
2023-05-14T15:40:33.183Z,15.20
2023-05-14T15:43:00.730Z,15.21
2023-05-14T15:45:28.528Z,15.19
2023-05-14T15:47:56.112Z,15.14
2023-05-14T15:50:23.815Z,15.00
2023-05-14T15:52:51.664Z,15.04
2023-05-14T15:55:19.209Z,14.98
2023-05-14T15:57:46.688Z,15.03
2023-05-14T16:00:14.836Z,14.98
2023-05-14T16:02:42.718Z,14.71
2023-05-14T16:05:10.379Z,14.95
2023-05-14T16:07:38.345Z,14.98
2023-05-14T16:10:06.633Z,14.95
2023-05-14T16:12:34.692Z,14.95
2023-05-14T16:15:02.240Z,14.97
2023-05-14T16:17:32.677Z,15.03
2023-05-14T16:20:00.964Z,15.02
2023-05-14T16:22:29.425Z,15.13
2023-05-14T16:24:57.146Z,15.18
2023-05-14T16:27:24.924Z,15.23
2023-05-14T16:29:52.617Z,15.27
2023-05-14T16:32:21.669Z,15.31
2023-05-14T16:34:52.044Z,15.32
2023-05-14T16:37:20.447Z,15.36
2023-05-14T16:39:48.351Z,15.41
2023-05-14T16:42:15.872Z,15.41
2023-05-14T16:44:43.986Z,15.42
2023-05-14T16:47:11.407Z,15.20
2023-05-14T16:49:38.847Z,15.36
2023-05-14T16:52:06.961Z,15.34
2023-05-14T16:54:34.400Z,15.35
2023-05-14T16:57:01.883Z,15.33
2023-05-14T16:59:29.680Z,15.32
2023-05-14T17:01:57.246Z,15.33
2023-05-14T17:04:26.620Z,15.32
2023-05-14T17:06:54.907Z,15.33
2023-05-14T17:09:22.551Z,15.30
2023-05-14T17:11:49.965Z,15.27
2023-05-14T17:14:17.711Z,15.29
2023-05-14T17:16:45.299Z,15.27
2023-05-14T17:19:12.793Z,15.25
2023-05-14T17:21:40.571Z,15.26
2023-05-14T17:24:08.096Z,15.20
2023-05-14T17:26:35.678Z,15.21
2023-05-14T17:29:03.781Z,15.21
2023-05-14T17:31:31.235Z,15.23
2023-05-14T17:33:58.901Z,15.20
2023-05-14T17:36:28.563Z,15.09
2023-05-14T17:38:56.204Z,15.19
2023-05-14T17:41:23.662Z,15.18
2023-05-14T17:43:52.533Z,14.92
2023-05-14T17:46:20.097Z,15.19
2023-05-14T17:48:47.729Z,14.95
2023-05-14T17:51:15.461Z,15.21
2023-05-14T17:53:42.974Z,15.21
2023-05-14T17:56:10.467Z,15.24
2023-05-14T17:58:38.280Z,15.23
2023-05-14T18:01:06.207Z,15.22
2023-05-14T18:03:34.397Z,15.22
2023-05-14T18:06:01.987Z,14.98
2023-05-14T18:08:29.425Z,15.22
2023-05-14T18:10:58.530Z,15.20
2023-05-14T18:13:25.947Z,15.18
2023-05-14T18:15:54.371Z,15.17
2023-05-14T18:18:24.001Z,15.16
2023-05-14T18:20:52.045Z,15.15
2023-05-14T18:23:20.053Z,15.14
2023-05-14T18:25:48.247Z,15.12
2023-05-14T18:28:15.855Z,15.12
2023-05-14T18:30:43.618Z,15.09
2023-05-14T18:33:11.594Z,15.07
2023-05-14T18:35:39.208Z,15.07
2023-05-14T18:38:08.085Z,15.06
2023-05-14T18:40:35.814Z,15.04
2023-05-14T18:43:03.372Z,15.04
2023-05-14T18:45:30.889Z,15.04
2023-05-14T18:47:58.699Z,15.03
2023-05-14T18:50:26.190Z,15.04
2023-05-14T18:52:53.704Z,15.06
2023-05-14T18:55:21.639Z,15.03
2023-05-14T18:57:49.447Z,15.01
2023-05-14T19:00:18.110Z,14.98
2023-05-14T19:02:46.306Z,14.75
2023-05-14T19:05:14.011Z,14.94
2023-05-14T19:07:42.970Z,14.93
2023-05-14T19:10:11.084Z,14.92
2023-05-14T19:12:38.689Z,14.90
2023-05-14T19:15:07.364Z,14.89
2023-05-14T19:17:35.509Z,14.86
2023-05-14T19:20:04.488Z,14.86
2023-05-14T19:22:32.116Z,14.64
2023-05-14T19:24:59.803Z,14.83
2023-05-14T19:27:27.539Z,14.80
2023-05-14T19:29:55.007Z,14.80
2023-05-14T19:32:22.775Z,14.78
2023-05-14T19:34:51.566Z,14.78
2023-05-14T19:37:19.176Z,14.78
2023-05-14T19:39:47.019Z,14.80
2023-05-14T19:42:14.918Z,14.82
2023-05-14T19:44:42.379Z,14.81
2023-05-14T19:47:10.269Z,14.82
2023-05-14T19:49:39.103Z,14.83
2023-05-14T19:52:06.735Z,14.80
2023-05-14T19:54:34.500Z,14.79
2023-05-14T19:57:02.058Z,14.76
2023-05-14T19:59:29.935Z,14.77
2023-05-14T20:01:57.758Z,14.77
2023-05-14T20:04:26.104Z,14.52
2023-05-14T20:06:53.661Z,14.76
2023-05-14T20:09:21.213Z,14.75
2023-05-14T20:11:49.172Z,14.73
2023-05-14T20:14:16.555Z,14.51
2023-05-14T20:16:44.476Z,14.77
2023-05-14T20:19:13.751Z,14.78
2023-05-14T20:21:41.330Z,14.77
2023-05-14T20:24:08.715Z,14.76
2023-05-14T20:26:36.463Z,14.76
2023-05-14T20:29:04.114Z,14.76
2023-05-14T20:31:31.613Z,14.77
2023-05-14T20:33:59.584Z,14.75
2023-05-14T20:36:29.731Z,14.78
2023-05-14T20:38:57.237Z,14.77
2023-05-14T20:41:24.963Z,14.81
2023-05-14T20:43:52.451Z,14.78
2023-05-14T20:46:20.108Z,14.53
2023-05-14T20:48:48.518Z,14.80
2023-05-14T20:51:15.992Z,14.82
2023-05-14T20:53:43.542Z,14.56
2023-05-14T20:56:11.278Z,14.58
2023-05-14T20:58:38.799Z,14.81
2023-05-14T21:01:08.107Z,14.82
2023-05-14T21:03:36.405Z,14.81
2023-05-14T21:06:04.139Z,14.81
2023-05-14T21:08:33.024Z,14.80
2023-05-14T21:11:00.840Z,14.80
2023-05-14T21:13:28.245Z,14.78
2023-05-14T21:15:55.880Z,14.79
2023-05-14T21:18:26.982Z,14.78
2023-05-14T21:20:54.463Z,14.55
2023-05-14T21:23:21.969Z,14.77
2023-05-14T21:25:49.637Z,14.79
2023-05-14T21:28:17.160Z,14.79
2023-05-14T21:30:44.630Z,14.79
2023-05-14T21:33:12.482Z,14.78
2023-05-14T21:35:40.046Z,14.78
2023-05-14T21:38:08.945Z,14.78
2023-05-14T21:40:36.774Z,14.78
2023-05-14T21:43:04.291Z,14.77
2023-05-14T21:45:31.786Z,14.77
2023-05-14T21:47:59.631Z,14.77
2023-05-14T21:50:27.185Z,14.70
2023-05-14T21:52:54.687Z,14.69
2023-05-14T21:55:22.957Z,14.65
2023-05-14T21:57:51.082Z,14.63
2023-05-14T22:00:23.413Z,14.61
2023-05-14T22:02:53.012Z,14.28
2023-05-14T22:05:21.226Z,14.49
2023-05-14T22:07:49.132Z,14.48
2023-05-14T22:10:16.876Z,14.47
2023-05-14T22:12:45.791Z,14.45
2023-05-14T22:15:13.448Z,14.43
2023-05-14T22:17:41.861Z,14.43
2023-05-14T22:20:10.350Z,14.38
2023-05-14T22:22:38.604Z,14.37
2023-05-14T22:25:06.828Z,14.36
2023-05-14T22:27:34.450Z,14.35
2023-05-14T22:30:01.917Z,14.35
2023-05-14T22:32:29.685Z,14.35
2023-05-14T22:34:57.219Z,14.33
2023-05-14T22:37:24.678Z,14.31
2023-05-14T22:39:52.405Z,14.31
2023-05-14T22:42:20.541Z,14.16
2023-05-14T22:44:47.937Z,14.32
2023-05-14T22:47:16.435Z,14.33
2023-05-14T22:49:43.921Z,14.32
2023-05-14T22:52:11.543Z,14.34
2023-05-14T22:54:39.271Z,14.31
2023-05-14T22:57:06.783Z,14.34
2023-05-14T22:59:34.381Z,14.33
2023-05-14T23:02:02.254Z,14.33
2023-05-14T23:04:29.744Z,14.34
2023-05-14T23:06:58.054Z,14.33
2023-05-14T23:09:25.794Z,14.28
2023-05-14T23:11:53.325Z,14.32
2023-05-14T23:14:21.127Z,14.34
2023-05-14T23:16:48.837Z,14.34
2023-05-14T23:19:16.540Z,14.09
2023-05-14T23:21:44.321Z,14.31
2023-05-14T23:24:12.014Z,14.32
2023-05-14T23:26:39.684Z,14.34
2023-05-14T23:29:07.288Z,14.33
2023-05-14T23:31:35.962Z,14.30
2023-05-14T23:34:03.349Z,14.30
2023-05-14T23:36:31.622Z,14.28
2023-05-14T23:38:59.684Z,14.26
2023-05-14T23:41:27.102Z,14.27
2023-05-14T23:43:55.455Z,14.25
2023-05-14T23:46:23.693Z,14.26
2023-05-14T23:48:52.175Z,14.00
2023-05-14T23:51:19.714Z,14.01
2023-05-14T23:53:47.437Z,14.23
2023-05-14T23:56:14.996Z,14.21
2023-05-14T23:58:42.564Z,14.21
